createdAt,value
2023-01-12T00:01:31.639Z,16.95
2023-01-12T00:03:58.227Z,20.23
2023-01-12T00:06:25.171Z,16.52
2023-01-12T00:08:52.330Z,18.58
2023-01-12T00:11:19.381Z,16.45
2023-01-12T00:13:46.013Z,20.98
2023-01-12T00:16:34.626Z,11.55
2023-01-12T00:19:34.059Z,18.17
2023-01-12T00:22:04.287Z,18.80
2023-01-12T00:24:41.779Z,16.02
2023-01-12T00:27:10.657Z,17.63
2023-01-12T00:29:37.607Z,15.20
2023-01-12T00:32:05.386Z,17.55
2023-01-12T00:34:32.153Z,19.30
2023-01-12T00:37:00.252Z,18.00
2023-01-12T00:39:26.789Z,13.38
2023-01-12T00:42:11.691Z,19.35
2023-01-12T00:44:57.128Z,15.05
2023-01-12T00:47:23.663Z,11.57
2023-01-12T00:49:50.211Z,28.15
2023-01-12T00:52:30.031Z,22.10
2023-01-12T00:54:58.284Z,25.10
2023-01-12T00:57:24.920Z,15.38
2023-01-12T00:59:54.921Z,20.10
2023-01-12T01:02:21.681Z,11.75
2023-01-12T01:04:49.163Z,20.65
2023-01-12T01:07:16.093Z,20.13
2023-01-12T01:09:43.118Z,17.33
2023-01-12T01:12:09.866Z,19.92
2023-01-12T01:14:36.410Z,16.90
2023-01-12T01:17:02.873Z,21.05
2023-01-12T01:19:29.406Z,15.65
2023-01-12T01:21:55.951Z,20.85
2023-01-12T01:24:22.492Z,27.40
2023-01-12T01:26:50.010Z,17.42
2023-01-12T01:29:16.505Z,22.77
2023-01-12T01:31:43.070Z,17.10
2023-01-12T01:34:09.671Z,20.38
2023-01-12T01:36:36.197Z,29.85
2023-01-12T01:39:02.750Z,26.50
2023-01-12T01:41:31.673Z,28.65
2023-01-12T01:44:00.596Z,30.10
2023-01-12T01:46:44.170Z,21.45
2023-01-12T01:49:43.780Z,16.33
2023-01-12T01:52:18.530Z,15.88
2023-01-12T01:55:29.294Z,21.40
2023-01-12T01:57:58.980Z,25.20
2023-01-12T02:00:25.844Z,14.65
2023-01-12T02:02:52.956Z,23.77
2023-01-12T02:05:22.250Z,23.00
2023-01-12T02:07:49.809Z,14.10
2023-01-12T02:10:17.017Z,25.10
2023-01-12T02:13:02.380Z,27.08
2023-01-12T02:15:51.052Z,14.52
2023-01-12T02:18:21.927Z,24.13
2023-01-12T02:21:06.446Z,24.02
2023-01-12T02:23:48.492Z,25.75
2023-01-12T02:26:31.709Z,30.38
2023-01-12T02:29:30.410Z,23.80
2023-01-12T02:32:26.282Z,16.70
2023-01-12T02:35:22.333Z,28.27
2023-01-12T02:37:59.366Z,19.30
2023-01-12T02:40:33.948Z,18.23
2023-01-12T02:43:12.004Z,21.83
2023-01-12T02:45:48.084Z,20.63
2023-01-12T02:48:32.517Z,23.65
2023-01-12T02:51:03.980Z,21.92
2023-01-12T02:53:35.195Z,16.20
2023-01-12T02:58:35.670Z,17.45
2023-01-12T03:01:03.635Z,18.13
2023-01-12T03:03:30.391Z,19.92
2023-01-12T03:06:00.137Z,19.70
2023-01-12T03:08:28.954Z,19.27
2023-01-12T03:11:12.054Z,17.65
2023-01-12T03:13:43.405Z,17.40
2023-01-12T03:18:51.249Z,16.75
2023-01-12T03:21:26.586Z,19.70
2023-01-12T03:23:59.807Z,14.48
2023-01-12T03:26:27.817Z,25.35
2023-01-12T03:29:31.942Z,25.05
2023-01-12T03:31:59.591Z,19.02
2023-01-12T03:34:26.515Z,23.15
2023-01-12T03:37:13.973Z,16.70
2023-01-12T03:39:57.988Z,19.35
2023-01-12T03:42:29.197Z,21.55
2023-01-12T03:45:17.442Z,15.48
2023-01-12T03:47:44.439Z,18.73
2023-01-12T03:50:17.667Z,20.80
2023-01-12T03:52:45.152Z,12.98
2023-01-12T03:55:14.387Z,10.50
2023-01-12T03:57:41.760Z,22.00
2023-01-12T04:00:11.541Z,21.08
2023-01-12T04:02:43.504Z,16.80
2023-01-12T04:05:10.251Z,20.00
2023-01-12T04:07:36.788Z,22.05
2023-01-12T04:10:03.677Z,18.13
2023-01-12T04:12:30.198Z,22.17
2023-01-12T04:14:56.929Z,12.38
2023-01-12T04:17:25.268Z,15.88
2023-01-12T04:19:52.223Z,14.52
2023-01-12T04:22:37.730Z,14.50
2023-01-12T04:25:04.773Z,22.00
2023-01-12T04:27:31.331Z,14.30
2023-01-12T04:29:57.923Z,13.82
2023-01-12T04:32:24.508Z,14.18
2023-01-12T04:34:51.187Z,24.95
2023-01-12T04:37:18.656Z,15.13
2023-01-12T04:39:45.191Z,11.95
2023-01-12T04:42:31.685Z,16.85
2023-01-12T04:44:58.253Z,20.63
2023-01-12T04:47:24.827Z,13.55
2023-01-12T04:49:51.393Z,15.60
2023-01-12T04:52:17.906Z,12.27
2023-01-12T04:54:44.428Z,14.02
2023-01-12T04:57:11.059Z,17.60
2023-01-12T04:59:37.599Z,15.48
2023-01-12T05:02:04.148Z,17.23
2023-01-12T05:04:30.691Z,16.52
2023-01-12T05:06:57.213Z,18.83
2023-01-12T05:09:42.185Z,9.70
2023-01-12T05:12:08.697Z,19.75
2023-01-12T05:14:35.269Z,14.77
2023-01-12T05:17:01.871Z,18.73
2023-01-12T05:19:28.354Z,15.68
2023-01-12T05:21:54.884Z,15.45
2023-01-12T05:24:21.391Z,16.60
2023-01-12T05:26:47.962Z,13.18
2023-01-12T05:29:14.611Z,7.60
2023-01-12T05:31:41.285Z,11.00
2023-01-12T05:34:08.104Z,19.40
2023-01-12T05:36:34.682Z,11.70
2023-01-12T05:39:01.240Z,18.02
2023-01-12T05:41:28.448Z,9.60
2023-01-12T05:43:55.057Z,14.38
2023-01-12T05:46:40.057Z,15.95
2023-01-12T05:49:06.572Z,14.25
2023-01-12T05:51:33.073Z,13.00
2023-01-12T05:53:59.665Z,14.38
2023-01-12T05:56:27.659Z,11.98
2023-01-12T05:59:00.183Z,10.52
2023-01-12T06:01:27.919Z,13.57
2023-01-12T06:03:56.591Z,20.67
2023-01-12T06:06:25.858Z,15.32
2023-01-12T06:08:53.795Z,14.10
2023-01-12T06:11:39.796Z,19.27
2023-01-12T06:14:07.026Z,14.40
2023-01-12T06:16:35.071Z,12.60
2023-01-12T06:19:01.559Z,10.13
2023-01-12T06:21:28.032Z,21.15
2023-01-12T06:23:54.584Z,17.10
2023-01-12T06:26:21.080Z,16.90
2023-01-12T06:28:47.730Z,10.63
2023-01-12T06:31:14.551Z,12.98
2023-01-12T06:33:41.206Z,15.20
2023-01-12T06:36:08.411Z,17.17
2023-01-12T06:38:37.004Z,12.32
2023-01-12T06:41:29.479Z,19.23
2023-01-12T06:43:56.553Z,12.25
2023-01-12T06:46:23.375Z,19.58
2023-01-12T06:48:49.947Z,13.80
2023-01-12T06:51:16.485Z,9.10
2023-01-12T06:53:43.003Z,13.77
2023-01-12T06:56:09.493Z,16.35
2023-01-12T06:58:36.114Z,17.63
2023-01-12T07:01:04.296Z,11.27
2023-01-12T07:03:32.909Z,15.05
2023-01-12T07:06:00.689Z,12.25
2023-01-12T07:08:27.629Z,20.02
2023-01-12T07:10:54.475Z,9.93
2023-01-12T07:13:21.874Z,10.73
2023-01-12T07:15:48.737Z,6.38
2023-01-12T07:18:15.303Z,10.48
2023-01-12T07:20:41.849Z,10.10
2023-01-12T07:23:08.587Z,17.42
2023-01-12T07:25:35.151Z,12.95
2023-01-12T07:28:01.881Z,13.35
2023-01-12T07:30:28.707Z,14.88
2023-01-12T07:32:55.628Z,11.20
2023-01-12T07:35:22.201Z,12.07
2023-01-12T07:37:49.959Z,16.60
2023-01-12T07:40:17.284Z,19.45
2023-01-12T07:42:43.933Z,14.05
2023-01-12T07:45:12.494Z,15.63
2023-01-12T07:47:39.543Z,12.82
2023-01-12T07:50:06.653Z,16.75
2023-01-12T07:52:33.458Z,18.35
2023-01-12T07:55:00.022Z,13.45
2023-01-12T07:57:26.700Z,17.48
2023-01-12T07:59:53.255Z,18.02
2023-01-12T08:02:20.893Z,19.70
2023-01-12T08:04:47.507Z,9.98
2023-01-12T08:07:14.951Z,11.25
2023-01-12T08:09:41.589Z,15.43
2023-01-12T08:12:08.182Z,13.32
2023-01-12T08:14:37.823Z,13.02
2023-01-12T08:17:08.489Z,12.65
2023-01-12T08:19:59.210Z,10.52
2023-01-12T08:22:30.218Z,10.02
2023-01-12T08:25:01.334Z,9.68
2023-01-12T08:27:32.399Z,14.60
2023-01-12T08:29:59.874Z,10.10
2023-01-12T08:32:29.409Z,11.35
2023-01-12T08:34:59.372Z,4.57
2023-01-12T08:37:28.968Z,13.18
2023-01-12T08:39:55.919Z,7.57
2023-01-12T08:42:26.433Z,7.68
2023-01-12T08:44:54.721Z,5.55
2023-01-12T08:47:26.987Z,5.03
2023-01-12T08:49:57.429Z,8.90
2023-01-12T08:52:24.005Z,9.20
2023-01-12T08:54:50.882Z,11.23
2023-01-12T08:57:19.133Z,14.65
2023-01-12T08:59:45.787Z,15.88
2023-01-12T09:02:13.441Z,4.93
2023-01-12T09:04:40.469Z,12.73
2023-01-12T09:07:07.839Z,4.78
2023-01-12T09:09:34.423Z,4.10
2023-01-12T09:12:01.293Z,10.75
2023-01-12T09:14:27.860Z,15.40
2023-01-12T09:16:56.912Z,9.63
2023-01-12T09:19:23.553Z,5.53
2023-01-12T09:21:50.196Z,13.30
2023-01-12T09:24:16.714Z,8.95
2023-01-12T09:26:45.340Z,9.18
2023-01-12T09:29:13.129Z,6.97
2023-01-12T09:31:42.456Z,9.77
2023-01-12T09:34:09.324Z,10.85
2023-01-12T09:36:37.294Z,8.48
2023-01-12T09:39:06.058Z,10.82
2023-01-12T09:42:08.617Z,7.68
2023-01-12T09:44:56.567Z,6.13
2023-01-12T09:47:41.548Z,12.27
2023-01-12T09:50:18.705Z,10.85
2023-01-12T09:52:47.514Z,12.75
2023-01-12T09:55:19.424Z,8.95
2023-01-12T09:57:48.917Z,11.63
2023-01-12T10:00:17.576Z,14.02
2023-01-12T10:02:47.056Z,10.20
2023-01-12T10:05:38.836Z,9.02
2023-01-12T10:08:13.713Z,5.72
2023-01-12T10:10:42.322Z,6.38
2023-01-12T10:13:14.040Z,5.15
2023-01-12T10:15:48.879Z,6.82
2023-01-12T10:18:21.455Z,10.07
2023-01-12T10:20:48.080Z,9.90
2023-01-12T10:23:19.053Z,13.38
2023-01-12T10:26:01.708Z,13.07
2023-01-12T10:28:33.312Z,5.63
2023-01-12T10:31:00.760Z,6.70
2023-01-12T10:33:30.147Z,14.95
2023-01-12T10:36:02.635Z,6.63
2023-01-12T10:38:36.151Z,6.53
2023-01-12T10:41:16.820Z,17.38
2023-01-12T10:43:45.511Z,3.75
2023-01-12T10:46:17.017Z,9.43
2023-01-12T10:48:51.074Z,12.80
2023-01-12T10:51:33.666Z,7.38
2023-01-12T10:54:02.200Z,5.28
2023-01-12T10:56:36.967Z,13.52
2023-01-12T10:59:12.267Z,4.65
2023-01-12T11:01:51.129Z,4.10
2023-01-12T11:04:23.122Z,5.28
2023-01-12T11:07:22.758Z,9.60
2023-01-12T11:09:49.474Z,4.03
2023-01-12T11:12:21.726Z,9.77
2023-01-12T11:14:58.884Z,9.25
2023-01-12T11:17:58.959Z,4.45
2023-01-12T11:21:13.017Z,8.32
2023-01-12T11:23:56.019Z,7.95
2023-01-12T11:26:28.698Z,10.35
2023-01-12T11:28:58.974Z,6.47
2023-01-12T11:31:31.715Z,6.07
2023-01-12T11:34:19.822Z,8.05
2023-01-12T11:36:49.437Z,14.05
2023-01-12T11:39:25.038Z,4.30
2023-01-12T11:42:13.049Z,6.22
2023-01-12T11:44:44.387Z,9.05
2023-01-12T11:49:47.034Z,9.30
2023-01-12T11:52:15.505Z,7.68
2023-01-12T11:54:42.300Z,7.60
2023-01-12T11:57:29.977Z,7.47
2023-01-12T12:00:08.868Z,7.78
2023-01-12T12:02:54.657Z,6.55
2023-01-12T12:05:41.329Z,9.30
2023-01-12T12:08:32.787Z,6.43
2023-01-12T12:11:02.195Z,5.03
2023-01-12T12:14:08.229Z,5.90
2023-01-12T12:16:53.094Z,9.63
2023-01-12T12:19:44.618Z,3.83
2023-01-12T12:25:27.773Z,3.53
2023-01-12T12:28:20.712Z,6.28
2023-01-12T12:31:25.812Z,3.72
2023-01-12T12:34:07.697Z,4.85
2023-01-12T12:36:51.953Z,10.25
2023-01-12T12:39:35.841Z,6.85
2023-01-12T12:42:42.827Z,7.55
2023-01-12T12:45:33.864Z,7.28
2023-01-12T12:48:18.322Z,9.65
2023-01-12T12:51:00.214Z,8.77
2023-01-12T12:53:33.514Z,5.50
2023-01-12T12:56:03.692Z,6.78
2023-01-12T12:58:40.014Z,6.90
2023-01-12T13:01:24.801Z,7.82
2023-01-12T13:03:56.327Z,6.38
2023-01-12T13:09:15.425Z,4.88
2023-01-12T13:11:53.726Z,3.47
2023-01-12T13:14:50.556Z,2.45
2023-01-12T13:17:19.862Z,3.10
2023-01-12T13:19:48.314Z,2.20
2023-01-12T13:22:32.236Z,2.70
2023-01-12T13:25:00.486Z,8.38
2023-01-12T13:28:01.337Z,2.80
2023-01-12T13:30:31.128Z,5.78
2023-01-12T13:33:42.855Z,4.45
2023-01-12T13:36:10.448Z,5.55
2023-01-12T13:38:51.754Z,4.50
2023-01-12T13:41:46.948Z,3.63
2023-01-12T13:44:27.382Z,6.32
2023-01-12T13:47:02.838Z,6.63
2023-01-12T13:49:34.917Z,1.42
2023-01-12T13:52:07.230Z,3.58
2023-01-12T13:54:34.149Z,4.47
2023-01-12T13:57:04.003Z,6.25
2023-01-12T13:59:32.803Z,5.18
2023-01-12T14:01:59.716Z,5.65
2023-01-12T14:04:36.675Z,3.67
2023-01-12T14:07:37.236Z,6.15
2023-01-12T14:10:36.985Z,4.93
2023-01-12T14:13:13.218Z,3.30
2023-01-12T14:16:00.938Z,6.80
2023-01-12T14:18:29.673Z,2.83
2023-01-12T14:20:58.057Z,2.15
2023-01-12T14:23:30.058Z,8.30
2023-01-12T14:26:14.730Z,3.35
2023-01-12T14:28:43.596Z,4.22
2023-01-12T14:31:16.041Z,6.57
2023-01-12T14:33:49.309Z,4.70
2023-01-12T14:36:19.649Z,3.88
2023-01-12T14:38:46.223Z,6.97
2023-01-12T14:41:40.783Z,7.70
2023-01-12T14:44:34.616Z,3.78
2023-01-12T14:47:01.195Z,4.30
2023-01-12T14:49:30.002Z,8.10
2023-01-12T14:51:57.430Z,1.88
2023-01-12T14:54:31.619Z,3.15
2023-01-12T14:57:01.925Z,1.73
2023-01-12T14:59:44.367Z,5.68
2023-01-12T15:02:13.670Z,4.65
2023-01-12T15:04:55.434Z,2.75
2023-01-12T15:07:22.413Z,7.28
2023-01-12T15:10:01.361Z,3.70
2023-01-12T15:12:30.657Z,6.03
2023-01-12T15:15:15.741Z,3.90
2023-01-12T15:18:01.296Z,4.75
2023-01-12T15:20:49.358Z,2.95
2023-01-12T15:23:34.785Z,5.38
2023-01-12T15:26:01.318Z,4.82
2023-01-12T15:28:31.190Z,6.45
2023-01-12T15:30:57.737Z,3.78
2023-01-12T15:33:24.413Z,1.60
2023-01-12T15:35:50.984Z,2.15
2023-01-12T15:38:18.049Z,2.33
2023-01-12T15:40:47.555Z,2.22
2023-01-12T15:43:15.808Z,2.67
2023-01-12T15:45:44.793Z,5.38
2023-01-12T15:48:11.762Z,3.95
2023-01-12T15:50:40.684Z,2.38
2023-01-12T15:53:27.494Z,8.68
2023-01-12T15:55:54.073Z,3.95
2023-01-12T15:58:20.644Z,2.75
2023-01-12T16:00:47.289Z,3.55
2023-01-12T16:03:34.551Z,1.38
2023-01-12T16:06:00.838Z,2.70
2023-01-12T16:08:27.401Z,3.65
2023-01-12T16:11:09.472Z,6.57
2023-01-12T16:13:36.024Z,3.22
2023-01-12T16:16:05.026Z,4.50
2023-01-12T16:18:32.043Z,3.83
2023-01-12T16:20:59.295Z,2.50
2023-01-12T16:23:25.913Z,3.25
2023-01-12T16:25:56.396Z,3.97
2023-01-12T16:28:23.069Z,4.00
2023-01-12T16:30:49.742Z,3.55
2023-01-12T16:33:17.685Z,6.40
2023-01-12T16:35:45.279Z,5.70
2023-01-12T16:38:15.576Z,3.03
2023-01-12T16:40:43.009Z,4.55
2023-01-12T16:43:09.792Z,6.30
2023-01-12T16:45:40.715Z,2.05
2023-01-12T16:48:07.437Z,1.00
2023-01-12T16:50:34.335Z,10.27
2023-01-12T16:53:00.857Z,2.72
2023-01-12T16:55:27.369Z,1.90
2023-01-12T16:57:53.919Z,7.50
2023-01-12T17:00:20.723Z,5.22
2023-01-12T17:02:47.555Z,3.45
2023-01-12T17:05:14.270Z,7.80
2023-01-12T17:07:40.970Z,5.70
2023-01-12T17:10:07.958Z,6.85
2023-01-12T17:12:34.728Z,3.58
2023-01-12T17:15:02.245Z,4.38
2023-01-12T17:17:29.533Z,5.38
2023-01-12T17:19:57.047Z,4.10
2023-01-12T17:22:23.946Z,3.80
2023-01-12T17:24:50.613Z,7.43
2023-01-12T17:27:17.184Z,3.53
2023-01-12T17:29:43.742Z,5.78
2023-01-12T17:32:10.583Z,5.03
2023-01-12T17:34:38.911Z,6.10
2023-01-12T17:37:09.578Z,6.57
2023-01-12T17:39:39.962Z,6.93
2023-01-12T17:42:25.441Z,5.72
2023-01-12T17:44:52.012Z,6.57
2023-01-12T17:47:18.492Z,4.90
2023-01-12T17:49:48.102Z,1.88
2023-01-12T17:52:15.309Z,2.90
2023-01-12T17:54:43.293Z,4.18
2023-01-12T17:57:09.860Z,7.22
2023-01-12T17:59:36.436Z,4.63
2023-01-12T18:02:03.597Z,8.98
2023-01-12T18:04:31.334Z,6.50
2023-01-12T18:06:57.836Z,4.78
2023-01-12T18:09:25.839Z,9.98
2023-01-12T18:11:52.381Z,4.28
2023-01-12T18:14:20.905Z,7.35
2023-01-12T18:16:47.804Z,6.22
2023-01-12T18:19:14.974Z,4.70
2023-01-12T18:21:41.566Z,5.93
2023-01-12T18:24:09.999Z,6.85
2023-01-12T18:26:38.085Z,6.07
2023-01-12T18:29:06.183Z,7.13
2023-01-12T18:31:37.145Z,6.82
2023-01-12T18:34:05.218Z,5.32
2023-01-12T18:36:36.040Z,3.78
2023-01-12T18:39:04.799Z,4.00
2023-01-12T18:41:49.743Z,3.90
2023-01-12T18:44:16.455Z,6.05
2023-01-12T18:47:02.846Z,3.60
2023-01-12T18:49:32.385Z,7.72
2023-01-12T18:52:18.336Z,4.03
2023-01-12T18:54:48.560Z,4.13
2023-01-12T18:57:17.694Z,3.55
2023-01-12T18:59:48.305Z,5.68
2023-01-12T19:02:16.170Z,9.77
2023-01-12T19:04:48.852Z,4.50
2023-01-12T19:07:28.202Z,5.50
2023-01-12T19:09:55.665Z,2.95
2023-01-12T19:12:22.239Z,3.22
2023-01-12T19:15:07.349Z,5.70
2023-01-12T19:17:34.139Z,4.47
2023-01-12T19:20:03.765Z,4.50
2023-01-12T19:22:48.882Z,7.80
2023-01-12T19:25:36.478Z,4.22
2023-01-12T19:28:21.969Z,4.22
2023-01-12T19:30:48.519Z,3.33
2023-01-12T19:33:15.675Z,4.10
2023-01-12T19:35:46.596Z,3.75
2023-01-12T19:38:14.374Z,6.18
2023-01-12T19:40:47.295Z,4.63
2023-01-12T19:43:20.735Z,5.65
2023-01-12T19:45:57.589Z,4.80
2023-01-12T19:48:25.672Z,6.25
2023-01-12T19:50:53.320Z,9.23
2023-01-12T19:53:27.696Z,3.88
2023-01-12T19:55:54.500Z,4.05
2023-01-12T19:58:22.105Z,5.60
2023-01-12T20:00:49.415Z,5.63
2023-01-12T20:03:18.632Z,6.25
2023-01-12T20:05:47.345Z,8.90
2023-01-12T20:08:14.893Z,6.43
2023-01-12T20:10:41.615Z,4.10
2023-01-12T20:13:08.624Z,2.90
2023-01-12T20:15:37.907Z,5.65
2023-01-12T20:18:06.533Z,4.07
2023-01-12T20:20:34.969Z,6.38
2023-01-12T20:23:01.526Z,2.08
2023-01-12T20:25:28.286Z,3.53
2023-01-12T20:27:55.073Z,2.10
2023-01-12T20:30:36.449Z,3.72
2023-01-12T20:33:04.280Z,4.82
2023-01-12T20:35:32.273Z,3.45
2023-01-12T20:37:58.831Z,4.15
2023-01-12T20:40:25.416Z,1.60
2023-01-12T20:42:51.925Z,6.55
2023-01-12T20:45:18.958Z,7.55
2023-01-12T20:47:45.544Z,3.13
2023-01-12T20:50:14.043Z,2.88
2023-01-12T20:52:41.071Z,4.15
2023-01-12T20:55:07.868Z,5.50
2023-01-12T20:57:36.194Z,4.47
2023-01-12T21:00:04.468Z,6.68
2023-01-12T21:02:31.059Z,3.13
2023-01-12T21:04:57.562Z,2.85
2023-01-12T21:07:24.147Z,4.50
2023-01-12T21:09:50.773Z,3.47
2023-01-12T21:12:17.359Z,5.60
2023-01-12T21:14:43.865Z,3.65
2023-01-12T21:17:10.476Z,5.10
2023-01-12T21:19:37.169Z,6.50
2023-01-12T21:22:04.023Z,3.72
2023-01-12T21:24:30.607Z,3.90
2023-01-12T21:26:57.141Z,5.32
2023-01-12T21:29:26.042Z,4.03
2023-01-12T21:31:53.148Z,5.20
2023-01-12T21:34:19.891Z,5.68
2023-01-12T21:36:46.520Z,11.13
2023-01-12T21:39:13.384Z,5.85
2023-01-12T21:42:18.165Z,5.57
2023-01-12T21:44:44.671Z,4.90
2023-01-12T21:47:11.268Z,4.18
2023-01-12T21:49:37.818Z,7.63
2023-01-12T21:52:04.705Z,7.30
2023-01-12T21:54:31.830Z,7.35
2023-01-12T21:56:58.895Z,5.30
2023-01-12T21:59:25.524Z,6.32
2023-01-12T22:01:52.190Z,8.73
2023-01-12T22:04:19.119Z,3.80
2023-01-12T22:06:45.674Z,6.68
2023-01-12T22:09:12.307Z,7.32
2023-01-12T22:11:38.894Z,4.72
2023-01-12T22:14:05.438Z,3.80
2023-01-12T22:16:32.133Z,4.38
2023-01-12T22:18:58.733Z,7.03
2023-01-12T22:21:26.034Z,5.57
2023-01-12T22:23:52.678Z,2.20
2023-01-12T22:26:19.226Z,6.05
2023-01-12T22:28:47.657Z,5.10
2023-01-12T22:31:19.387Z,2.33
2023-01-12T22:33:47.498Z,4.43
2023-01-12T22:36:14.528Z,4.15
2023-01-12T22:38:42.335Z,6.22
2023-01-12T22:41:11.866Z,2.30
2023-01-12T22:43:42.093Z,2.45
2023-01-12T22:46:13.287Z,3.05
2023-01-12T22:48:40.227Z,3.67
2023-01-12T22:51:07.824Z,4.75
2023-01-12T22:53:35.346Z,2.95
2023-01-12T22:56:04.433Z,4.45
2023-01-12T22:58:31.290Z,5.18
2023-01-12T23:01:06.047Z,3.25
2023-01-12T23:03:33.625Z,2.65
2023-01-12T23:06:00.836Z,3.17
2023-01-12T23:08:27.616Z,3.03
2023-01-12T23:11:12.270Z,2.13
2023-01-12T23:13:39.903Z,2.13
2023-01-12T23:16:08.341Z,4.13
2023-01-12T23:18:36.684Z,7.63
2023-01-12T23:21:11.644Z,4.68
2023-01-12T23:23:38.888Z,2.45
2023-01-12T23:26:09.013Z,3.42
2023-01-12T23:28:36.655Z,4.28
2023-01-12T23:31:07.441Z,4.25
2023-01-12T23:33:34.510Z,3.63
2023-01-12T23:36:08.419Z,2.20
2023-01-12T23:38:35.394Z,3.65
2023-01-12T23:41:11.299Z,2.78
2023-01-12T23:43:38.199Z,3.63
2023-01-12T23:46:05.181Z,1.63
2023-01-12T23:48:31.894Z,6.80
2023-01-12T23:51:00.136Z,1.85
2023-01-12T23:53:27.916Z,1.40
2023-01-12T23:55:55.143Z,2.95
2023-01-12T23:58:21.816Z,2.40
